sensor_id;sensor_type;location;lat;lon;timestamp;temperature;humidity
11848;DHT22;5983;49.966;8.052;2023-12-20T00:01:38;5.50;99.90
11848;DHT22;5983;49.966;8.052;2023-12-20T00:04:05;5.50;99.90
11848;DHT22;5983;49.966;8.052;2023-12-20T00:06:32;5.50;99.90
11848;DHT22;5983;49.966;8.052;2023-12-20T00:08:59;5.50;99.90
11848;DHT22;5983;49.966;8.052;2023-12-20T00:11:27;5.50;99.90
11848;DHT22;5983;49.966;8.052;2023-12-20T00:13:54;5.50;99.90
11848;DHT22;5983;49.966;8.052;2023-12-20T00:16:20;5.50;99.90
11848;DHT22;5983;49.966;8.052;2023-12-20T00:18:47;5.50;99.90
11848;DHT22;5983;49.966;8.052;2023-12-20T00:21:14;5.50;99.90
11848;DHT22;5983;49.966;8.052;2023-12-20T00:23:41;5.50;99.90
11848;DHT22;5983;49.966;8.052;2023-12-20T00:26:07;5.50;99.90
11848;DHT22;5983;49.966;8.052;2023-12-20T00:28:35;5.50;99.90
11848;DHT22;5983;49.966;8.052;2023-12-20T00:31:02;5.50;99.90
11848;DHT22;5983;49.966;8.052;2023-12-20T00:33:29;5.50;99.90
11848;DHT22;5983;49.966;8.052;2023-12-20T00:35:57;5.50;99.90
11848;DHT22;5983;49.966;8.052;2023-12-20T00:38:23;5.50;99.90
11848;DHT22;5983;49.966;8.052;2023-12-20T00:40:50;5.50;99.90
11848;DHT22;5983;49.966;8.052;2023-12-20T00:43:17;5.50;99.90
11848;DHT22;5983;49.966;8.052;2023-12-20T00:45:45;5.50;99.90
11848;DHT22;5983;49.966;8.052;2023-12-20T00:48:12;5.50;99.90
11848;DHT22;5983;49.966;8.052;2023-12-20T00:50:39;5.50;99.90
11848;DHT22;5983;49.966;8.052;2023-12-20T00:53:05;5.50;99.90
11848;DHT22;5983;49.966;8.052;2023-12-20T00:55:32;5.50;99.90
11848;DHT22;5983;49.966;8.052;2023-12-20T00:57:59;5.50;99.90
11848;DHT22;5983;49.966;8.052;2023-12-20T01:00:26;5.60;99.90
11848;DHT22;5983;49.966;8.052;2023-12-20T01:02:54;5.60;99.90
11848;DHT22;5983;49.966;8.052;2023-12-20T01:05:21;5.50;99.90
11848;DHT22;5983;49.966;8.052;2023-12-20T01:07:48;5.50;99.90
11848;DHT22;5983;49.966;8.052;2023-12-20T01:10:15;5.50;99.90
11848;DHT22;5983;49.966;8.052;2023-12-20T01:12:42;5.60;99.90
11848;DHT22;5983;49.966;8.052;2023-12-20T01:15:09;5.50;99.90
11848;DHT22;5983;49.966;8.052;2023-12-20T01:17:36;5.60;99.90
11848;DHT22;5983;49.966;8.052;2023-12-20T01:20:05;5.50;99.90
11848;DHT22;5983;49.966;8.052;2023-12-20T01:22:33;5.60;99.90
11848;DHT22;5983;49.966;8.052;2023-12-20T01:25:01;5.60;99.90
11848;DHT22;5983;49.966;8.052;2023-12-20T01:27:27;5.50;99.90
11848;DHT22;5983;49.966;8.052;2023-12-20T01:29:56;5.60;99.90
11848;DHT22;5983;49.966;8.052;2023-12-20T01:32:23;5.50;99.90
11848;DHT22;5983;49.966;8.052;2023-12-20T01:34:49;5.50;99.90
11848;DHT22;5983;49.966;8.052;2023-12-20T01:37:18;5.60;99.90
11848;DHT22;5983;49.966;8.052;2023-12-20T01:39:44;5.60;99.90
11848;DHT22;5983;49.966;8.052;2023-12-20T01:42:13;5.60;99.90
11848;DHT22;5983;49.966;8.052;2023-12-20T01:44:40;5.60;99.90
11848;DHT22;5983;49.966;8.052;2023-12-20T01:47:07;5.60;99.90
11848;DHT22;5983;49.966;8.052;2023-12-20T01:49:35;5.50;99.90
11848;DHT22;5983;49.966;8.052;2023-12-20T01:52:02;5.50;99.90
11848;DHT22;5983;49.966;8.052;2023-12-20T01:54:31;5.50;99.90
11848;DHT22;5983;49.966;8.052;2023-12-20T01:56:58;5.50;99.90
11848;DHT22;5983;49.966;8.052;2023-12-20T01:59:25;5.60;99.90
11848;DHT22;5983;49.966;8.052;2023-12-20T02:01:52;5.50;99.90
11848;DHT22;5983;49.966;8.052;2023-12-20T02:04:19;5.60;99.90
11848;DHT22;5983;49.966;8.052;2023-12-20T02:06:46;5.50;99.90
11848;DHT22;5983;49.966;8.052;2023-12-20T02:09:13;5.50;99.90
11848;DHT22;5983;49.966;8.052;2023-12-20T02:11:42;5.50;99.90
11848;DHT22;5983;49.966;8.052;2023-12-20T02:14:09;5.50;99.90
11848;DHT22;5983;49.966;8.052;2023-12-20T02:16:36;5.50;99.90
11848;DHT22;5983;49.966;8.052;2023-12-20T02:19:03;5.50;99.90
11848;DHT22;5983;49.966;8.052;2023-12-20T02:21:33;5.50;99.90
11848;DHT22;5983;49.966;8.052;2023-12-20T02:24:00;5.50;99.90
11848;DHT22;5983;49.966;8.052;2023-12-20T02:26:27;5.50;99.90
11848;DHT22;5983;49.966;8.052;2023-12-20T02:28:54;5.50;99.90
11848;DHT22;5983;49.966;8.052;2023-12-20T02:31:21;5.40;99.90
11848;DHT22;5983;49.966;8.052;2023-12-20T02:33:48;5.40;99.90
11848;DHT22;5983;49.966;8.052;2023-12-20T02:36:15;5.50;99.90
11848;DHT22;5983;49.966;8.052;2023-12-20T02:38:43;5.50;99.90
11848;DHT22;5983;49.966;8.052;2023-12-20T02:41:10;5.50;99.90
11848;DHT22;5983;49.966;8.052;2023-12-20T02:43:37;5.50;99.90
11848;DHT22;5983;49.966;8.052;2023-12-20T02:46:03;5.50;99.90
11848;DHT22;5983;49.966;8.052;2023-12-20T02:48:30;5.60;99.90
11848;DHT22;5983;49.966;8.052;2023-12-20T02:50:57;5.60;99.90
11848;DHT22;5983;49.966;8.052;2023-12-20T02:53:24;5.60;99.90
11848;DHT22;5983;49.966;8.052;2023-12-20T02:55:52;5.60;99.90
11848;DHT22;5983;49.966;8.052;2023-12-20T02:58:18;5.60;99.90
11848;DHT22;5983;49.966;8.052;2023-12-20T03:00:45;5.70;99.90
11848;DHT22;5983;49.966;8.052;2023-12-20T03:03:12;5.70;99.90
11848;DHT22;5983;49.966;8.052;2023-12-20T03:05:39;5.70;99.90
11848;DHT22;5983;49.966;8.052;2023-12-20T03:08:05;5.70;99.90
11848;DHT22;5983;49.966;8.052;2023-12-20T03:10:32;5.70;99.90
11848;DHT22;5983;49.966;8.052;2023-12-20T03:13:00;5.70;99.90
11848;DHT22;5983;49.966;8.052;2023-12-20T03:15:27;5.70;99.90
11848;DHT22;5983;49.966;8.052;2023-12-20T03:17:54;5.70;99.90
11848;DHT22;5983;49.966;8.052;2023-12-20T03:20:21;5.70;99.90
11848;DHT22;5983;49.966;8.052;2023-12-20T03:22:48;5.80;99.90
11848;DHT22;5983;49.966;8.052;2023-12-20T03:25:14;5.80;99.90
11848;DHT22;5983;49.966;8.052;2023-12-20T03:27:41;5.90;99.90
11848;DHT22;5983;49.966;8.052;2023-12-20T03:30:10;5.90;99.90
11848;DHT22;5983;49.966;8.052;2023-12-20T03:32:37;5.90;99.90
11848;DHT22;5983;49.966;8.052;2023-12-20T03:35:04;5.90;99.90
11848;DHT22;5983;49.966;8.052;2023-12-20T03:37:32;6.00;99.90
11848;DHT22;5983;49.966;8.052;2023-12-20T03:39:58;6.00;99.90
11848;DHT22;5983;49.966;8.052;2023-12-20T03:42:25;6.00;99.90
11848;DHT22;5983;49.966;8.052;2023-12-20T03:44:52;6.00;99.90
11848;DHT22;5983;49.966;8.052;2023-12-20T03:47:20;6.00;99.90
11848;DHT22;5983;49.966;8.052;2023-12-20T03:49:47;6.00;99.90
11848;DHT22;5983;49.966;8.052;2023-12-20T03:52:14;6.00;99.90
11848;DHT22;5983;49.966;8.052;2023-12-20T03:54:41;5.90;99.90
11848;DHT22;5983;49.966;8.052;2023-12-20T03:57:08;6.00;99.90
11848;DHT22;5983;49.966;8.052;2023-12-20T03:59:35;6.00;99.90
11848;DHT22;5983;49.966;8.052;2023-12-20T04:02:02;6.00;99.90
11848;DHT22;5983;49.966;8.052;2023-12-20T04:04:30;6.10;99.90
11848;DHT22;5983;49.966;8.052;2023-12-20T04:06:57;6.10;99.90
11848;DHT22;5983;49.966;8.052;2023-12-20T04:09:24;6.10;99.90
11848;DHT22;5983;49.966;8.052;2023-12-20T04:11:51;6.10;99.90
11848;DHT22;5983;49.966;8.052;2023-12-20T04:14:17;6.10;99.90
11848;DHT22;5983;49.966;8.052;2023-12-20T04:16:43;6.10;99.90
11848;DHT22;5983;49.966;8.052;2023-12-20T04:19:10;6.10;99.90
11848;DHT22;5983;49.966;8.052;2023-12-20T04:21:38;6.00;99.90
11848;DHT22;5983;49.966;8.052;2023-12-20T04:24:05;6.00;99.90
11848;DHT22;5983;49.966;8.052;2023-12-20T04:26:32;6.00;99.90
11848;DHT22;5983;49.966;8.052;2023-12-20T04:28:59;5.90;99.90
11848;DHT22;5983;49.966;8.052;2023-12-20T04:31:26;5.90;99.90
11848;DHT22;5983;49.966;8.052;2023-12-20T04:33:52;5.90;99.90
11848;DHT22;5983;49.966;8.052;2023-12-20T04:36:19;5.90;99.90
11848;DHT22;5983;49.966;8.052;2023-12-20T04:38:47;5.90;99.90
11848;DHT22;5983;49.966;8.052;2023-12-20T04:41:14;5.90;99.90
11848;DHT22;5983;49.966;8.052;2023-12-20T04:43:44;5.90;99.90
11848;DHT22;5983;49.966;8.052;2023-12-20T04:46:10;5.80;99.90
11848;DHT22;5983;49.966;8.052;2023-12-20T04:48:37;5.80;99.90
11848;DHT22;5983;49.966;8.052;2023-12-20T04:51:04;5.80;99.90
11848;DHT22;5983;49.966;8.052;2023-12-20T04:53:31;5.70;99.90
11848;DHT22;5983;49.966;8.052;2023-12-20T04:55:59;5.60;99.90
11848;DHT22;5983;49.966;8.052;2023-12-20T04:58:26;5.60;99.90
11848;DHT22;5983;49.966;8.052;2023-12-20T05:00:53;5.50;99.90
11848;DHT22;5983;49.966;8.052;2023-12-20T05:03:20;5.50;99.90
11848;DHT22;5983;49.966;8.052;2023-12-20T05:05:46;5.40;99.90
11848;DHT22;5983;49.966;8.052;2023-12-20T05:08:13;5.30;99.90
11848;DHT22;5983;49.966;8.052;2023-12-20T05:10:40;5.20;99.90
11848;DHT22;5983;49.966;8.052;2023-12-20T05:13:08;5.20;99.90
11848;DHT22;5983;49.966;8.052;2023-12-20T05:15:36;5.10;99.90
11848;DHT22;5983;49.966;8.052;2023-12-20T05:18:03;5.00;99.90
11848;DHT22;5983;49.966;8.052;2023-12-20T05:20:30;5.00;99.90
11848;DHT22;5983;49.966;8.052;2023-12-20T05:22:57;5.00;99.90
11848;DHT22;5983;49.966;8.052;2023-12-20T05:25:23;5.00;99.90
11848;DHT22;5983;49.966;8.052;2023-12-20T05:27:50;5.00;99.90
11848;DHT22;5983;49.966;8.052;2023-12-20T05:30:19;5.00;99.90
11848;DHT22;5983;49.966;8.052;2023-12-20T05:32:45;5.00;99.90
11848;DHT22;5983;49.966;8.052;2023-12-20T05:35:12;5.10;99.90
11848;DHT22;5983;49.966;8.052;2023-12-20T05:37:39;5.10;99.90
11848;DHT22;5983;49.966;8.052;2023-12-20T05:40:06;5.10;99.90
11848;DHT22;5983;49.966;8.052;2023-12-20T05:42:35;5.10;99.90
11848;DHT22;5983;49.966;8.052;2023-12-20T05:45:02;5.10;99.90
11848;DHT22;5983;49.966;8.052;2023-12-20T05:47:30;5.10;99.90
11848;DHT22;5983;49.966;8.052;2023-12-20T05:49:57;5.10;99.90
11848;DHT22;5983;49.966;8.052;2023-12-20T05:52:24;5.10;99.90
11848;DHT22;5983;49.966;8.052;2023-12-20T05:54:51;5.00;99.90
11848;DHT22;5983;49.966;8.052;2023-12-20T05:57:17;5.00;99.90
11848;DHT22;5983;49.966;8.052;2023-12-20T05:59:44;5.00;99.90
11848;DHT22;5983;49.966;8.052;2023-12-20T06:02:11;4.90;99.90
11848;DHT22;5983;49.966;8.052;2023-12-20T06:04:42;4.90;99.90
11848;DHT22;5983;49.966;8.052;2023-12-20T06:07:11;4.90;99.90
11848;DHT22;5983;49.966;8.052;2023-12-20T06:09:38;4.80;99.90
11848;DHT22;5983;49.966;8.052;2023-12-20T06:12:05;4.90;99.90
11848;DHT22;5983;49.966;8.052;2023-12-20T06:14:32;4.90;99.90
11848;DHT22;5983;49.966;8.052;2023-12-20T06:16:58;4.80;99.90
11848;DHT22;5983;49.966;8.052;2023-12-20T06:19:26;4.80;99.90
11848;DHT22;5983;49.966;8.052;2023-12-20T06:21:54;4.80;99.90
11848;DHT22;5983;49.966;8.052;2023-12-20T06:24:21;4.80;99.90
11848;DHT22;5983;49.966;8.052;2023-12-20T06:26:48;4.70;99.90
11848;DHT22;5983;49.966;8.052;2023-12-20T06:29:15;4.70;99.90
11848;DHT22;5983;49.966;8.052;2023-12-20T06:31:42;4.70;99.90
11848;DHT22;5983;49.966;8.052;2023-12-20T06:34:08;4.70;99.90
11848;DHT22;5983;49.966;8.052;2023-12-20T06:36:35;4.70;99.90
11848;DHT22;5983;49.966;8.052;2023-12-20T06:39:04;4.70;99.90
11848;DHT22;5983;49.966;8.052;2023-12-20T06:41:31;4.70;99.90
11848;DHT22;5983;49.966;8.052;2023-12-20T06:43:57;4.80;99.90
11848;DHT22;5983;49.966;8.052;2023-12-20T06:46:24;4.90;99.90
11848;DHT22;5983;49.966;8.052;2023-12-20T06:48:51;4.90;99.90
11848;DHT22;5983;49.966;8.052;2023-12-20T06:51:17;4.90;99.90
11848;DHT22;5983;49.966;8.052;2023-12-20T06:53:45;4.90;99.90
11848;DHT22;5983;49.966;8.052;2023-12-20T06:56:13;4.90;99.90
11848;DHT22;5983;49.966;8.052;2023-12-20T06:58:41;4.90;99.90
11848;DHT22;5983;49.966;8.052;2023-12-20T07:01:10;5.00;99.90
11848;DHT22;5983;49.966;8.052;2023-12-20T07:03:37;5.00;99.90
11848;DHT22;5983;49.966;8.052;2023-12-20T07:06:04;4.90;99.90
11848;DHT22;5983;49.966;8.052;2023-12-20T07:08:31;4.90;99.90
11848;DHT22;5983;49.966;8.052;2023-12-20T07:10:58;4.90;99.90
11848;DHT22;5983;49.966;8.052;2023-12-20T07:13:26;4.90;99.90
11848;DHT22;5983;49.966;8.052;2023-12-20T07:15:53;4.90;99.90
11848;DHT22;5983;49.966;8.052;2023-12-20T07:18:19;5.00;99.90
11848;DHT22;5983;49.966;8.052;2023-12-20T07:20:46;5.10;99.90
11848;DHT22;5983;49.966;8.052;2023-12-20T07:23:13;5.10;99.90
11848;DHT22;5983;49.966;8.052;2023-12-20T07:25:40;5.10;99.90
11848;DHT22;5983;49.966;8.052;2023-12-20T07:28:09;5.20;99.90
11848;DHT22;5983;49.966;8.052;2023-12-20T07:30:37;5.20;99.90
11848;DHT22;5983;49.966;8.052;2023-12-20T07:33:04;5.10;99.90
11848;DHT22;5983;49.966;8.052;2023-12-20T07:35:33;5.10;99.90
11848;DHT22;5983;49.966;8.052;2023-12-20T07:38:00;5.10;99.90
11848;DHT22;5983;49.966;8.052;2023-12-20T07:40:27;5.10;99.90
11848;DHT22;5983;49.966;8.052;2023-12-20T07:42:54;5.20;99.90
11848;DHT22;5983;49.966;8.052;2023-12-20T07:45:21;5.20;99.90
11848;DHT22;5983;49.966;8.052;2023-12-20T07:47:49;5.20;99.90
11848;DHT22;5983;49.966;8.052;2023-12-20T07:50:16;5.20;99.90
11848;DHT22;5983;49.966;8.052;2023-12-20T07:52:43;5.30;99.90
11848;DHT22;5983;49.966;8.052;2023-12-20T07:55:09;5.30;99.90
11848;DHT22;5983;49.966;8.052;2023-12-20T07:57:36;5.30;99.90
11848;DHT22;5983;49.966;8.052;2023-12-20T08:00:03;5.40;99.90
11848;DHT22;5983;49.966;8.052;2023-12-20T08:02:31;5.40;99.90
11848;DHT22;5983;49.966;8.052;2023-12-20T08:04:59;5.50;99.90
11848;DHT22;5983;49.966;8.052;2023-12-20T08:07:26;5.50;99.90
11848;DHT22;5983;49.966;8.052;2023-12-20T08:09:53;5.60;99.90
11848;DHT22;5983;49.966;8.052;2023-12-20T08:12:22;5.70;99.90
11848;DHT22;5983;49.966;8.052;2023-12-20T08:14:48;5.80;99.90
11848;DHT22;5983;49.966;8.052;2023-12-20T08:17:15;5.80;99.90
11848;DHT22;5983;49.966;8.052;2023-12-20T08:19:44;5.80;99.90
11848;DHT22;5983;49.966;8.052;2023-12-20T08:22:12;5.90;99.90
11848;DHT22;5983;49.966;8.052;2023-12-20T08:24:39;5.90;99.90
11848;DHT22;5983;49.966;8.052;2023-12-20T08:27:05;6.00;99.90
11848;DHT22;5983;49.966;8.052;2023-12-20T08:29:32;6.10;99.90
11848;DHT22;5983;49.966;8.052;2023-12-20T08:31:59;6.10;99.90
11848;DHT22;5983;49.966;8.052;2023-12-20T08:34:26;6.10;99.90
11848;DHT22;5983;49.966;8.052;2023-12-20T08:36:53;6.20;99.90
11848;DHT22;5983;49.966;8.052;2023-12-20T08:39:21;6.10;99.90
11848;DHT22;5983;49.966;8.052;2023-12-20T08:41:48;6.20;99.90
11848;DHT22;5983;49.966;8.052;2023-12-20T08:44:15;6.20;99.90
11848;DHT22;5983;49.966;8.052;2023-12-20T08:46:41;6.20;99.90
11848;DHT22;5983;49.966;8.052;2023-12-20T08:51:36;6.20;99.90
11848;DHT22;5983;49.966;8.052;2023-12-20T08:54:05;6.20;99.90
11848;DHT22;5983;49.966;8.052;2023-12-20T08:56:34;6.20;99.90
11848;DHT22;5983;49.966;8.052;2023-12-20T08:59:01;6.20;99.90
11848;DHT22;5983;49.966;8.052;2023-12-20T09:01:28;6.30;99.90
11848;DHT22;5983;49.966;8.052;2023-12-20T09:03:55;6.30;99.90
11848;DHT22;5983;49.966;8.052;2023-12-20T09:06:21;6.40;99.90
11848;DHT22;5983;49.966;8.052;2023-12-20T09:08:48;6.50;99.90
11848;DHT22;5983;49.966;8.052;2023-12-20T09:11:15;6.60;99.90
11848;DHT22;5983;49.966;8.052;2023-12-20T09:13:44;6.80;99.90
11848;DHT22;5983;49.966;8.052;2023-12-20T09:16:10;6.80;99.90
11848;DHT22;5983;49.966;8.052;2023-12-20T09:18:38;6.80;99.90
11848;DHT22;5983;49.966;8.052;2023-12-20T09:21:05;6.80;99.90
11848;DHT22;5983;49.966;8.052;2023-12-20T09:23:31;6.70;99.90
11848;DHT22;5983;49.966;8.052;2023-12-20T09:25:58;6.70;99.90
11848;DHT22;5983;49.966;8.052;2023-12-20T09:28:25;6.80;99.90
11848;DHT22;5983;49.966;8.052;2023-12-20T09:30:53;6.80;99.90
11848;DHT22;5983;49.966;8.052;2023-12-20T09:33:20;6.90;99.90
11848;DHT22;5983;49.966;8.052;2023-12-20T09:35:47;7.00;99.90
11848;DHT22;5983;49.966;8.052;2023-12-20T09:38:13;7.10;99.90
11848;DHT22;5983;49.966;8.052;2023-12-20T09:40:42;7.20;99.90
11848;DHT22;5983;49.966;8.052;2023-12-20T09:43:10;7.30;99.90
11848;DHT22;5983;49.966;8.052;2023-12-20T09:45:38;7.40;99.90
11848;DHT22;5983;49.966;8.052;2023-12-20T09:48:08;7.60;99.90
11848;DHT22;5983;49.966;8.052;2023-12-20T09:50:37;7.90;99.90
11848;DHT22;5983;49.966;8.052;2023-12-20T09:53:04;8.70;99.90
11848;DHT22;5983;49.966;8.052;2023-12-20T09:55:31;10.00;99.90
11848;DHT22;5983;49.966;8.052;2023-12-20T09:57:59;11.40;99.90
11848;DHT22;5983;49.966;8.052;2023-12-20T10:00:26;12.40;99.90
11848;DHT22;5983;49.966;8.052;2023-12-20T10:02:56;13.10;99.90
11848;DHT22;5983;49.966;8.052;2023-12-20T10:05:26;13.20;99.90
11848;DHT22;5983;49.966;8.052;2023-12-20T10:07:53;13.00;99.90
11848;DHT22;5983;49.966;8.052;2023-12-20T10:10:20;12.20;99.90
11848;DHT22;5983;49.966;8.052;2023-12-20T10:13:00;11.50;99.90
11848;DHT22;5983;49.966;8.052;2023-12-20T10:15:28;10.80;99.90
11848;DHT22;5983;49.966;8.052;2023-12-20T10:17:56;10.10;99.90
11848;DHT22;5983;49.966;8.052;2023-12-20T10:20:24;9.60;99.90
11848;DHT22;5983;49.966;8.052;2023-12-20T10:22:51;9.30;99.90
11848;DHT22;5983;49.966;8.052;2023-12-20T10:25:19;9.00;99.90
11848;DHT22;5983;49.966;8.052;2023-12-20T10:27:46;8.70;99.90
11848;DHT22;5983;49.966;8.052;2023-12-20T10:30:13;8.50;99.90
11848;DHT22;5983;49.966;8.052;2023-12-20T10:32:40;8.30;99.90
11848;DHT22;5983;49.966;8.052;2023-12-20T10:35:08;8.20;99.90
11848;DHT22;5983;49.966;8.052;2023-12-20T10:37:36;8.10;99.90
11848;DHT22;5983;49.966;8.052;2023-12-20T10:40:04;8.10;99.90
11848;DHT22;5983;49.966;8.052;2023-12-20T10:42:32;8.00;99.90
11848;DHT22;5983;49.966;8.052;2023-12-20T10:44:59;8.00;99.90
11848;DHT22;5983;49.966;8.052;2023-12-20T10:47:26;7.90;99.90
11848;DHT22;5983;49.966;8.052;2023-12-20T10:49:54;7.90;99.90
11848;DHT22;5983;49.966;8.052;2023-12-20T10:52:22;7.90;99.90
11848;DHT22;5983;49.966;8.052;2023-12-20T10:54:51;7.80;99.90
11848;DHT22;5983;49.966;8.052;2023-12-20T10:57:18;7.80;99.90
11848;DHT22;5983;49.966;8.052;2023-12-20T10:59:44;7.90;99.90
11848;DHT22;5983;49.966;8.052;2023-12-20T11:02:13;8.10;99.90
11848;DHT22;5983;49.966;8.052;2023-12-20T11:04:42;8.20;99.90
11848;DHT22;5983;49.966;8.052;2023-12-20T11:07:17;8.30;99.90
11848;DHT22;5983;49.966;8.052;2023-12-20T11:09:53;8.30;99.90
11848;DHT22;5983;49.966;8.052;2023-12-20T11:12:29;8.40;99.90
11848;DHT22;5983;49.966;8.052;2023-12-20T11:15:02;8.50;99.90
11848;DHT22;5983;49.966;8.052;2023-12-20T11:17:31;8.50;99.90
11848;DHT22;5983;49.966;8.052;2023-12-20T11:20:08;8.60;99.90
11848;DHT22;5983;49.966;8.052;2023-12-20T11:22:37;8.60;99.90
11848;DHT22;5983;49.966;8.052;2023-12-20T11:25:09;8.60;99.90
11848;DHT22;5983;49.966;8.052;2023-12-20T11:27:36;8.60;99.90
11848;DHT22;5983;49.966;8.052;2023-12-20T11:30:08;8.50;99.90
11848;DHT22;5983;49.966;8.052;2023-12-20T11:32:36;8.40;99.90
11848;DHT22;5983;49.966;8.052;2023-12-20T11:35:16;8.20;99.90
11848;DHT22;5983;49.966;8.052;2023-12-20T11:37:45;8.10;99.90
11848;DHT22;5983;49.966;8.052;2023-12-20T11:40:15;8.00;99.90
11848;DHT22;5983;49.966;8.052;2023-12-20T11:42:43;7.90;99.90
11848;DHT22;5983;49.966;8.052;2023-12-20T11:45:10;7.90;99.90
11848;DHT22;5983;49.966;8.052;2023-12-20T11:47:40;7.80;99.90
11848;DHT22;5983;49.966;8.052;2023-12-20T11:50:07;7.70;99.90
11848;DHT22;5983;49.966;8.052;2023-12-20T11:52:34;7.70;99.90
11848;DHT22;5983;49.966;8.052;2023-12-20T11:55:02;7.70;99.90
11848;DHT22;5983;49.966;8.052;2023-12-20T11:57:30;7.70;99.90
11848;DHT22;5983;49.966;8.052;2023-12-20T11:59:57;7.60;99.90
11848;DHT22;5983;49.966;8.052;2023-12-20T12:02:24;7.60;99.90
11848;DHT22;5983;49.966;8.052;2023-12-20T12:04:51;7.70;99.90
11848;DHT22;5983;49.966;8.052;2023-12-20T12:07:18;7.90;99.90
11848;DHT22;5983;49.966;8.052;2023-12-20T12:09:45;8.20;99.90
11848;DHT22;5983;49.966;8.052;2023-12-20T12:12:13;8.40;99.90
11848;DHT22;5983;49.966;8.052;2023-12-20T12:14:41;8.60;99.90
11848;DHT22;5983;49.966;8.052;2023-12-20T12:17:11;9.00;99.90
11848;DHT22;5983;49.966;8.052;2023-12-20T12:19:39;10.50;99.90
11848;DHT22;5983;49.966;8.052;2023-12-20T12:22:06;11.30;99.90
11848;DHT22;5983;49.966;8.052;2023-12-20T12:24:36;11.50;99.90
11848;DHT22;5983;49.966;8.052;2023-12-20T12:27:05;11.30;99.90
11848;DHT22;5983;49.966;8.052;2023-12-20T12:29:32;11.10;99.90
11848;DHT22;5983;49.966;8.052;2023-12-20T12:32:01;10.90;99.90
11848;DHT22;5983;49.966;8.052;2023-12-20T12:34:31;10.50;99.90
11848;DHT22;5983;49.966;8.052;2023-12-20T12:36:59;10.20;99.90
11848;DHT22;5983;49.966;8.052;2023-12-20T12:39:26;10.00;99.90
11848;DHT22;5983;49.966;8.052;2023-12-20T12:41:53;9.80;99.90
11848;DHT22;5983;49.966;8.052;2023-12-20T12:44:20;9.60;99.90
11848;DHT22;5983;49.966;8.052;2023-12-20T12:46:49;9.50;99.90
11848;DHT22;5983;49.966;8.052;2023-12-20T12:49:17;9.40;99.90
11848;DHT22;5983;49.966;8.052;2023-12-20T12:51:44;9.40;99.90
11848;DHT22;5983;49.966;8.052;2023-12-20T12:54:11;9.40;99.90
11848;DHT22;5983;49.966;8.052;2023-12-20T12:56:38;9.60;99.90
11848;DHT22;5983;49.966;8.052;2023-12-20T12:59:05;10.20;99.90
11848;DHT22;5983;49.966;8.052;2023-12-20T13:01:32;11.20;99.90
11848;DHT22;5983;49.966;8.052;2023-12-20T13:03:59;12.60;99.90
11848;DHT22;5983;49.966;8.052;2023-12-20T13:06:28;14.30;99.90
11848;DHT22;5983;49.966;8.052;2023-12-20T13:08:54;16.20;99.90
11848;DHT22;5983;49.966;8.052;2023-12-20T13:11:21;17.70;99.90
11848;DHT22;5983;49.966;8.052;2023-12-20T13:13:48;19.10;99.90
11848;DHT22;5983;49.966;8.052;2023-12-20T13:16:15;19.50;95.50
11848;DHT22;5983;49.966;8.052;2023-12-20T13:18:41;19.10;94.60
11848;DHT22;5983;49.966;8.052;2023-12-20T13:21:08;18.80;93.80
11848;DHT22;5983;49.966;8.052;2023-12-20T13:23:36;19.30;93.00
11848;DHT22;5983;49.966;8.052;2023-12-20T13:26:03;19.70;91.70
11848;DHT22;5983;49.966;8.052;2023-12-20T13:28:31;19.20;90.10
11848;DHT22;5983;49.966;8.052;2023-12-20T13:30:57;17.90;90.80
11848;DHT22;5983;49.966;8.052;2023-12-20T13:33:25;16.50;92.90
11848;DHT22;5983;49.966;8.052;2023-12-20T13:35:51;15.40;95.40
11848;DHT22;5983;49.966;8.052;2023-12-20T13:38:18;14.40;97.40
11848;DHT22;5983;49.966;8.052;2023-12-20T13:40:46;13.60;99.90
11848;DHT22;5983;49.966;8.052;2023-12-20T13:43:13;13.40;99.90
11848;DHT22;5983;49.966;8.052;2023-12-20T13:45:42;13.20;99.90
11848;DHT22;5983;49.966;8.052;2023-12-20T13:48:08;13.30;99.90
11848;DHT22;5983;49.966;8.052;2023-12-20T13:50:35;13.40;99.90
11848;DHT22;5983;49.966;8.052;2023-12-20T13:53:02;13.50;99.90
11848;DHT22;5983;49.966;8.052;2023-12-20T13:55:29;13.50;99.90
11848;DHT22;5983;49.966;8.052;2023-12-20T13:57:57;13.60;99.90
11848;DHT22;5983;49.966;8.052;2023-12-20T14:00:24;13.60;99.90
11848;DHT22;5983;49.966;8.052;2023-12-20T14:02:51;13.30;99.90
11848;DHT22;5983;49.966;8.052;2023-12-20T14:05:17;13.00;99.90
11848;DHT22;5983;49.966;8.052;2023-12-20T14:07:44;12.50;99.90
11848;DHT22;5983;49.966;8.052;2023-12-20T14:10:11;12.00;99.90
11848;DHT22;5983;49.966;8.052;2023-12-20T14:12:38;11.60;99.90
11848;DHT22;5983;49.966;8.052;2023-12-20T14:15:07;11.20;99.90
11848;DHT22;5983;49.966;8.052;2023-12-20T14:17:36;10.70;99.90
11848;DHT22;5983;49.966;8.052;2023-12-20T14:20:03;10.40;99.90
11848;DHT22;5983;49.966;8.052;2023-12-20T14:22:31;10.00;99.90
11848;DHT22;5983;49.966;8.052;2023-12-20T14:24:58;9.80;99.90
11848;DHT22;5983;49.966;8.052;2023-12-20T14:27:25;9.60;99.90
11848;DHT22;5983;49.966;8.052;2023-12-20T14:29:53;9.40;99.90
11848;DHT22;5983;49.966;8.052;2023-12-20T14:32:21;9.30;99.90
11848;DHT22;5983;49.966;8.052;2023-12-20T14:34:48;9.10;99.90
11848;DHT22;5983;49.966;8.052;2023-12-20T14:37:14;8.90;99.90
11848;DHT22;5983;49.966;8.052;2023-12-20T14:39:42;8.80;99.90
11848;DHT22;5983;49.966;8.052;2023-12-20T14:42:09;8.70;99.90
11848;DHT22;5983;49.966;8.052;2023-12-20T14:44:38;8.70;99.90
11848;DHT22;5983;49.966;8.052;2023-12-20T14:47:06;8.60;99.90
11848;DHT22;5983;49.966;8.052;2023-12-20T14:52:09;8.40;99.90
11848;DHT22;5983;49.966;8.052;2023-12-20T14:54:37;8.40;99.90
11848;DHT22;5983;49.966;8.052;2023-12-20T14:57:04;8.30;99.90
11848;DHT22;5983;49.966;8.052;2023-12-20T14:59:32;8.20;99.90
11848;DHT22;5983;49.966;8.052;2023-12-20T15:01:59;8.20;99.90
11848;DHT22;5983;49.966;8.052;2023-12-20T15:04:28;8.10;99.90
11848;DHT22;5983;49.966;8.052;2023-12-20T15:06:55;8.10;99.90
11848;DHT22;5983;49.966;8.052;2023-12-20T15:09:23;8.00;99.90
11848;DHT22;5983;49.966;8.052;2023-12-20T15:11:50;8.00;99.90
11848;DHT22;5983;49.966;8.052;2023-12-20T15:14:17;8.00;99.90
11848;DHT22;5983;49.966;8.052;2023-12-20T15:16:45;7.90;99.90
11848;DHT22;5983;49.966;8.052;2023-12-20T15:19:12;7.90;99.90
11848;DHT22;5983;49.966;8.052;2023-12-20T15:21:39;7.90;99.90
11848;DHT22;5983;49.966;8.052;2023-12-20T15:24:07;7.80;99.90
11848;DHT22;5983;49.966;8.052;2023-12-20T15:26:41;7.80;99.90
11848;DHT22;5983;49.966;8.052;2023-12-20T15:29:09;7.80;99.90
11848;DHT22;5983;49.966;8.052;2023-12-20T15:31:41;7.80;99.90
11848;DHT22;5983;49.966;8.052;2023-12-20T15:34:08;7.70;99.90
11848;DHT22;5983;49.966;8.052;2023-12-20T15:36:35;7.70;99.90
11848;DHT22;5983;49.966;8.052;2023-12-20T15:39:02;7.70;99.90
11848;DHT22;5983;49.966;8.052;2023-12-20T15:41:29;7.70;99.90
11848;DHT22;5983;49.966;8.052;2023-12-20T15:43:57;7.70;99.90
11848;DHT22;5983;49.966;8.052;2023-12-20T15:46:24;7.70;99.90
11848;DHT22;5983;49.966;8.052;2023-12-20T15:48:50;7.70;99.90
11848;DHT22;5983;49.966;8.052;2023-12-20T15:51:19;7.60;99.90
11848;DHT22;5983;49.966;8.052;2023-12-20T15:53:45;7.60;99.90
11848;DHT22;5983;49.966;8.052;2023-12-20T15:56:13;7.60;99.90
11848;DHT22;5983;49.966;8.052;2023-12-20T15:58:40;7.60;99.90
11848;DHT22;5983;49.966;8.052;2023-12-20T16:01:08;7.60;99.90
11848;DHT22;5983;49.966;8.052;2023-12-20T16:03:34;7.60;99.90
11848;DHT22;5983;49.966;8.052;2023-12-20T16:06:01;7.60;99.90